sensor_id;sensor_type;location;lat;lon;timestamp;temperature;humidity
18575;DHT22;9417;16.484;102.872;2024-02-15T00:00:55;19.90;91.30
18575;DHT22;9417;16.484;102.872;2024-02-15T00:01:59;19.90;91.30
18575;DHT22;9417;16.484;102.872;2024-02-15T00:03:01;19.90;91.40
18575;DHT22;9417;16.484;102.872;2024-02-15T00:04:03;19.90;91.50
18575;DHT22;9417;16.484;102.872;2024-02-15T00:05:05;19.90;91.70
18575;DHT22;9417;16.484;102.872;2024-02-15T00:06:07;19.90;91.60
18575;DHT22;9417;16.484;102.872;2024-02-15T00:07:08;20.00;91.50
18575;DHT22;9417;16.484;102.872;2024-02-15T00:08:10;20.00;91.10
18575;DHT22;9417;16.484;102.872;2024-02-15T00:09:12;20.00;91.00
18575;DHT22;9417;16.484;102.872;2024-02-15T00:10:13;20.00;91.00
18575;DHT22;9417;16.484;102.872;2024-02-15T00:11:16;20.00;91.30
18575;DHT22;9417;16.484;102.872;2024-02-15T00:12:17;20.00;91.60
18575;DHT22;9417;16.484;102.872;2024-02-15T00:13:19;20.00;91.70
18575;DHT22;9417;16.484;102.872;2024-02-15T00:14:21;20.00;91.80
18575;DHT22;9417;16.484;102.872;2024-02-15T00:15:23;20.00;91.90
18575;DHT22;9417;16.484;102.872;2024-02-15T00:16:24;20.00;91.90
18575;DHT22;9417;16.484;102.872;2024-02-15T00:17:28;20.00;91.90
18575;DHT22;9417;16.484;102.872;2024-02-15T00:18:33;20.00;92.00
18575;DHT22;9417;16.484;102.872;2024-02-15T00:19:35;20.10;91.90
18575;DHT22;9417;16.484;102.872;2024-02-15T00:20:37;20.10;92.00
18575;DHT22;9417;16.484;102.872;2024-02-15T00:21:43;20.10;92.00
18575;DHT22;9417;16.484;102.872;2024-02-15T00:22:45;20.10;92.00
18575;DHT22;9417;16.484;102.872;2024-02-15T00:23:49;20.20;92.00
18575;DHT22;9417;16.484;102.872;2024-02-15T00:24:51;20.20;92.10
18575;DHT22;9417;16.484;102.872;2024-02-15T00:25:52;20.20;92.10
18575;DHT22;9417;16.484;102.872;2024-02-15T00:26:54;20.30;92.00
18575;DHT22;9417;16.484;102.872;2024-02-15T00:27:56;20.30;92.00
18575;DHT22;9417;16.484;102.872;2024-02-15T00:28:57;20.30;92.00
18575;DHT22;9417;16.484;102.872;2024-02-15T00:29:59;20.30;92.20
18575;DHT22;9417;16.484;102.872;2024-02-15T00:31:01;20.40;92.20
18575;DHT22;9417;16.484;102.872;2024-02-15T00:32:05;20.40;92.30
18575;DHT22;9417;16.484;102.872;2024-02-15T00:33:07;20.40;92.50
18575;DHT22;9417;16.484;102.872;2024-02-15T00:34:08;20.50;92.50
18575;DHT22;9417;16.484;102.872;2024-02-15T00:35:10;20.50;92.50
18575;DHT22;9417;16.484;102.872;2024-02-15T00:36:11;20.50;92.70
18575;DHT22;9417;16.484;102.872;2024-02-15T00:37:14;20.50;92.90
18575;DHT22;9417;16.484;102.872;2024-02-15T00:38:16;20.60;93.10
18575;DHT22;9417;16.484;102.872;2024-02-15T00:39:17;20.60;93.20
18575;DHT22;9417;16.484;102.872;2024-02-15T00:40:19;20.60;93.20
18575;DHT22;9417;16.484;102.872;2024-02-15T00:41:22;20.60;93.20
18575;DHT22;9417;16.484;102.872;2024-02-15T00:42:23;20.70;93.10
18575;DHT22;9417;16.484;102.872;2024-02-15T00:43:27;20.70;93.10
18575;DHT22;9417;16.484;102.872;2024-02-15T00:44:29;20.70;93.20
18575;DHT22;9417;16.484;102.872;2024-02-15T00:45:30;20.70;93.30
18575;DHT22;9417;16.484;102.872;2024-02-15T00:46:32;20.70;93.50
18575;DHT22;9417;16.484;102.872;2024-02-15T00:47:33;20.80;93.50
18575;DHT22;9417;16.484;102.872;2024-02-15T00:48:35;20.90;93.40
18575;DHT22;9417;16.484;102.872;2024-02-15T00:49:37;20.90;93.40
18575;DHT22;9417;16.484;102.872;2024-02-15T00:50:38;20.90;93.40
18575;DHT22;9417;16.484;102.872;2024-02-15T00:51:40;20.90;93.60
18575;DHT22;9417;16.484;102.872;2024-02-15T00:52:42;21.00;93.80
18575;DHT22;9417;16.484;102.872;2024-02-15T00:53:43;21.00;93.90
18575;DHT22;9417;16.484;102.872;2024-02-15T00:54:45;21.00;93.90
18575;DHT22;9417;16.484;102.872;2024-02-15T00:55:47;21.10;93.70
18575;DHT22;9417;16.484;102.872;2024-02-15T00:56:50;21.10;93.50
18575;DHT22;9417;16.484;102.872;2024-02-15T00:57:53;21.10;93.20
18575;DHT22;9417;16.484;102.872;2024-02-15T00:58:54;21.10;93.10
18575;DHT22;9417;16.484;102.872;2024-02-15T00:59:56;21.10;92.90
18575;DHT22;9417;16.484;102.872;2024-02-15T01:00:57;21.20;92.80
18575;DHT22;9417;16.484;102.872;2024-02-15T01:01:59;21.20;92.60
18575;DHT22;9417;16.484;102.872;2024-02-15T01:03:01;21.30;92.30
18575;DHT22;9417;16.484;102.872;2024-02-15T01:04:03;21.30;92.10
18575;DHT22;9417;16.484;102.872;2024-02-15T01:05:05;21.30;91.90
18575;DHT22;9417;16.484;102.872;2024-02-15T01:06:07;21.30;91.90
18575;DHT22;9417;16.484;102.872;2024-02-15T01:07:08;21.40;91.90
18575;DHT22;9417;16.484;102.872;2024-02-15T01:08:10;21.40;91.90
18575;DHT22;9417;16.484;102.872;2024-02-15T01:09:12;21.40;92.00
18575;DHT22;9417;16.484;102.872;2024-02-15T01:10:14;21.40;91.80
18575;DHT22;9417;16.484;102.872;2024-02-15T01:11:16;21.50;91.40
18575;DHT22;9417;16.484;102.872;2024-02-15T01:12:17;21.50;91.10
18575;DHT22;9417;16.484;102.872;2024-02-15T01:13:19;21.50;91.00
18575;DHT22;9417;16.484;102.872;2024-02-15T01:14:21;21.50;91.20
18575;DHT22;9417;16.484;102.872;2024-02-15T01:15:23;21.60;90.80
18575;DHT22;9417;16.484;102.872;2024-02-15T01:16:25;21.60;90.30
18575;DHT22;9417;16.484;102.872;2024-02-15T01:17:26;21.60;90.00
18575;DHT22;9417;16.484;102.872;2024-02-15T01:18:28;21.70;89.90
18575;DHT22;9417;16.484;102.872;2024-02-15T01:19:30;21.80;90.00
18575;DHT22;9417;16.484;102.872;2024-02-15T01:20:32;21.80;90.00
18575;DHT22;9417;16.484;102.872;2024-02-15T01:21:34;21.80;89.60
18575;DHT22;9417;16.484;102.872;2024-02-15T01:22:36;21.90;89.20
18575;DHT22;9417;16.484;102.872;2024-02-15T01:23:37;21.90;88.80
18575;DHT22;9417;16.484;102.872;2024-02-15T01:24:39;22.00;88.50
18575;DHT22;9417;16.484;102.872;2024-02-15T01:25:41;22.00;88.10
18575;DHT22;9417;16.484;102.872;2024-02-15T01:26:42;22.10;87.80
18575;DHT22;9417;16.484;102.872;2024-02-15T01:27:44;22.10;87.80
18575;DHT22;9417;16.484;102.872;2024-02-15T01:28:45;22.10;88.10
18575;DHT22;9417;16.484;102.872;2024-02-15T01:29:47;22.20;88.30
18575;DHT22;9417;16.484;102.872;2024-02-15T01:30:49;22.20;88.30
18575;DHT22;9417;16.484;102.872;2024-02-15T01:31:51;22.30;88.30
18575;DHT22;9417;16.484;102.872;2024-02-15T01:32:53;22.40;88.10
18575;DHT22;9417;16.484;102.872;2024-02-15T01:33:54;22.40;87.80
18575;DHT22;9417;16.484;102.872;2024-02-15T01:34:56;22.40;87.50
18575;DHT22;9417;16.484;102.872;2024-02-15T01:35:58;22.50;87.40
18575;DHT22;9417;16.484;102.872;2024-02-15T01:37:00;22.50;87.30
18575;DHT22;9417;16.484;102.872;2024-02-15T01:38:02;22.60;87.40
18575;DHT22;9417;16.484;102.872;2024-02-15T01:39:04;22.60;87.20
18575;DHT22;9417;16.484;102.872;2024-02-15T01:40:06;22.70;87.20
18575;DHT22;9417;16.484;102.872;2024-02-15T01:41:08;22.70;87.20
18575;DHT22;9417;16.484;102.872;2024-02-15T01:42:10;22.70;87.10
18575;DHT22;9417;16.484;102.872;2024-02-15T01:43:12;22.80;86.60
18575;DHT22;9417;16.484;102.872;2024-02-15T01:44:13;22.90;86.10
18575;DHT22;9417;16.484;102.872;2024-02-15T01:45:16;22.90;85.80
18575;DHT22;9417;16.484;102.872;2024-02-15T01:46:18;23.00;85.70
18575;DHT22;9417;16.484;102.872;2024-02-15T01:47:20;23.00;85.50
18575;DHT22;9417;16.484;102.872;2024-02-15T01:48:23;23.00;84.90
18575;DHT22;9417;16.484;102.872;2024-02-15T01:49:25;23.10;84.20
18575;DHT22;9417;16.484;102.872;2024-02-15T01:50:28;23.10;83.80
18575;DHT22;9417;16.484;102.872;2024-02-15T01:51:30;23.20;83.50
18575;DHT22;9417;16.484;102.872;2024-02-15T01:52:34;23.30;83.50
18575;DHT22;9417;16.484;102.872;2024-02-15T01:53:37;23.30;83.30
18575;DHT22;9417;16.484;102.872;2024-02-15T01:54:39;23.30;83.20
18575;DHT22;9417;16.484;102.872;2024-02-15T01:55:41;23.40;82.80
18575;DHT22;9417;16.484;102.872;2024-02-15T01:56:43;23.40;82.80
18575;DHT22;9417;16.484;102.872;2024-02-15T01:57:45;23.50;82.80
18575;DHT22;9417;16.484;102.872;2024-02-15T01:58:47;23.60;82.70
18575;DHT22;9417;16.484;102.872;2024-02-15T01:59:50;23.60;82.60
18575;DHT22;9417;16.484;102.872;2024-02-15T02:00:56;23.70;82.70
18575;DHT22;9417;16.484;102.872;2024-02-15T02:01:58;23.80;82.70
18575;DHT22;9417;16.484;102.872;2024-02-15T02:03:02;23.80;82.10
18575;DHT22;9417;16.484;102.872;2024-02-15T02:04:04;23.80;81.30
18575;DHT22;9417;16.484;102.872;2024-02-15T02:05:06;23.90;80.80
18575;DHT22;9417;16.484;102.872;2024-02-15T02:06:09;23.90;80.70
18575;DHT22;9417;16.484;102.872;2024-02-15T02:07:11;24.00;80.50
18575;DHT22;9417;16.484;102.872;2024-02-15T02:08:13;24.00;80.80
18575;DHT22;9417;16.484;102.872;2024-02-15T02:09:14;24.10;80.50
18575;DHT22;9417;16.484;102.872;2024-02-15T02:10:16;24.10;80.30
18575;DHT22;9417;16.484;102.872;2024-02-15T02:11:19;24.10;79.90
18575;DHT22;9417;16.484;102.872;2024-02-15T02:12:21;24.20;79.80
18575;DHT22;9417;16.484;102.872;2024-02-15T02:13:23;24.30;79.30
18575;DHT22;9417;16.484;102.872;2024-02-15T02:14:25;24.30;78.90
18575;DHT22;9417;16.484;102.872;2024-02-15T02:15:27;24.40;78.50
18575;DHT22;9417;16.484;102.872;2024-02-15T02:16:32;24.40;78.40
18575;DHT22;9417;16.484;102.872;2024-02-15T02:17:34;24.50;78.50
18575;DHT22;9417;16.484;102.872;2024-02-15T02:18:36;24.50;78.00
18575;DHT22;9417;16.484;102.872;2024-02-15T02:19:38;24.60;77.50
18575;DHT22;9417;16.484;102.872;2024-02-15T02:20:39;24.60;77.30
18575;DHT22;9417;16.484;102.872;2024-02-15T02:21:41;24.70;76.60
18575;DHT22;9417;16.484;102.872;2024-02-15T02:22:46;24.70;76.20
18575;DHT22;9417;16.484;102.872;2024-02-15T02:23:53;24.80;76.00
18575;DHT22;9417;16.484;102.872;2024-02-15T02:25:59;24.90;73.30
18575;DHT22;9417;16.484;102.872;2024-02-15T02:27:03;24.90;71.40
18575;DHT22;9417;16.484;102.872;2024-02-15T02:28:07;24.90;69.80
18575;DHT22;9417;16.484;102.872;2024-02-15T02:29:09;24.90;68.70
18575;DHT22;9417;16.484;102.872;2024-02-15T02:30:16;25.00;67.90
18575;DHT22;9417;16.484;102.872;2024-02-15T02:31:22;25.00;67.00
18575;DHT22;9417;16.484;102.872;2024-02-15T02:32:23;25.10;66.60
18575;DHT22;9417;16.484;102.872;2024-02-15T02:33:25;25.10;66.40
18575;DHT22;9417;16.484;102.872;2024-02-15T02:34:29;25.20;66.00
18575;DHT22;9417;16.484;102.872;2024-02-15T02:35:33;25.20;66.30
18575;DHT22;9417;16.484;102.872;2024-02-15T02:36:34;25.30;66.40
18575;DHT22;9417;16.484;102.872;2024-02-15T02:37:37;25.30;66.70
18575;DHT22;9417;16.484;102.872;2024-02-15T02:38:39;25.40;67.10
18575;DHT22;9417;16.484;102.872;2024-02-15T02:39:42;25.40;67.10
18575;DHT22;9417;16.484;102.872;2024-02-15T02:40:44;25.50;67.00
18575;DHT22;9417;16.484;102.872;2024-02-15T02:41:45;25.50;66.90
18575;DHT22;9417;16.484;102.872;2024-02-15T02:42:55;25.60;66.90
18575;DHT22;9417;16.484;102.872;2024-02-15T02:44:03;25.70;66.90
18575;DHT22;9417;16.484;102.872;2024-02-15T02:45:05;25.70;66.80
18575;DHT22;9417;16.484;102.872;2024-02-15T02:46:10;25.70;66.50
18575;DHT22;9417;16.484;102.872;2024-02-15T02:47:12;25.70;66.00
18575;DHT22;9417;16.484;102.872;2024-02-15T02:48:13;25.80;65.50
18575;DHT22;9417;16.484;102.872;2024-02-15T02:49:15;25.80;65.00
18575;DHT22;9417;16.484;102.872;2024-02-15T02:50:17;25.90;64.50
18575;DHT22;9417;16.484;102.872;2024-02-15T02:51:18;25.90;64.50
18575;DHT22;9417;16.484;102.872;2024-02-15T02:52:20;26.00;64.70
18575;DHT22;9417;16.484;102.872;2024-02-15T02:53:22;26.00;64.60
18575;DHT22;9417;16.484;102.872;2024-02-15T02:54:23;26.00;64.40
18575;DHT22;9417;16.484;102.872;2024-02-15T02:55:25;26.10;63.70
18575;DHT22;9417;16.484;102.872;2024-02-15T02:56:28;26.10;63.50
18575;DHT22;9417;16.484;102.872;2024-02-15T02:57:29;26.20;63.80
18575;DHT22;9417;16.484;102.872;2024-02-15T02:58:33;26.20;64.20
18575;DHT22;9417;16.484;102.872;2024-02-15T02:59:35;26.30;64.00
18575;DHT22;9417;16.484;102.872;2024-02-15T03:00:37;26.30;63.70
18575;DHT22;9417;16.484;102.872;2024-02-15T03:01:40;26.30;63.20
18575;DHT22;9417;16.484;102.872;2024-02-15T03:02:43;26.40;63.10
18575;DHT22;9417;16.484;102.872;2024-02-15T03:03:45;26.40;63.00
18575;DHT22;9417;16.484;102.872;2024-02-15T03:04:46;26.50;62.40
18575;DHT22;9417;16.484;102.872;2024-02-15T03:05:48;26.50;62.30
18575;DHT22;9417;16.484;102.872;2024-02-15T03:06:50;26.60;62.60
18575;DHT22;9417;16.484;102.872;2024-02-15T03:07:52;26.60;61.50
18575;DHT22;9417;16.484;102.872;2024-02-15T03:08:54;26.60;60.60
18575;DHT22;9417;16.484;102.872;2024-02-15T03:09:56;26.70;60.70
18575;DHT22;9417;16.484;102.872;2024-02-15T03:10:57;26.80;60.20
18575;DHT22;9417;16.484;102.872;2024-02-15T03:11:59;26.80;59.20
18575;DHT22;9417;16.484;102.872;2024-02-15T03:13:02;26.80;58.90
18575;DHT22;9417;16.484;102.872;2024-02-15T03:14:06;26.90;59.10
18575;DHT22;9417;16.484;102.872;2024-02-15T03:15:08;27.00;58.90
18575;DHT22;9417;16.484;102.872;2024-02-15T03:16:12;27.00;58.30
18575;DHT22;9417;16.484;102.872;2024-02-15T03:17:13;27.10;57.90
18575;DHT22;9417;16.484;102.872;2024-02-15T03:18:15;27.10;57.40
18575;DHT22;9417;16.484;102.872;2024-02-15T03:19:18;27.10;57.10
18575;DHT22;9417;16.484;102.872;2024-02-15T03:20:19;27.20;57.20
18575;DHT22;9417;16.484;102.872;2024-02-15T03:21:21;27.20;57.40
18575;DHT22;9417;16.484;102.872;2024-02-15T03:22:23;27.20;58.20
18575;DHT22;9417;16.484;102.872;2024-02-15T03:23:26;27.30;57.60
18575;DHT22;9417;16.484;102.872;2024-02-15T03:24:29;27.40;57.50
18575;DHT22;9417;16.484;102.872;2024-02-15T03:25:31;27.40;56.40
18575;DHT22;9417;16.484;102.872;2024-02-15T03:26:35;27.40;56.00
18575;DHT22;9417;16.484;102.872;2024-02-15T03:27:41;27.50;55.50
18575;DHT22;9417;16.484;102.872;2024-02-15T03:28:42;27.50;55.50
18575;DHT22;9417;16.484;102.872;2024-02-15T03:29:45;27.60;55.50
18575;DHT22;9417;16.484;102.872;2024-02-15T03:30:48;27.60;55.80
18575;DHT22;9417;16.484;102.872;2024-02-15T03:31:50;27.60;55.90
18575;DHT22;9417;16.484;102.872;2024-02-15T03:32:54;27.70;55.80
18575;DHT22;9417;16.484;102.872;2024-02-15T03:33:55;27.70;56.10
18575;DHT22;9417;16.484;102.872;2024-02-15T03:34:57;27.70;56.70
18575;DHT22;9417;16.484;102.872;2024-02-15T03:36:00;27.80;56.40
18575;DHT22;9417;16.484;102.872;2024-02-15T03:37:01;27.80;56.80
18575;DHT22;9417;16.484;102.872;2024-02-15T03:38:05;27.90;57.50
18575;DHT22;9417;16.484;102.872;2024-02-15T03:39:07;27.90;57.80
18575;DHT22;9417;16.484;102.872;2024-02-15T03:40:09;28.00;57.40
18575;DHT22;9417;16.484;102.872;2024-02-15T03:41:11;28.00;57.50
18575;DHT22;9417;16.484;102.872;2024-02-15T03:42:13;28.00;57.40
18575;DHT22;9417;16.484;102.872;2024-02-15T03:43:14;28.10;57.30
18575;DHT22;9417;16.484;102.872;2024-02-15T03:44:17;28.10;57.70
18575;DHT22;9417;16.484;102.872;2024-02-15T03:45:20;28.10;57.60
18575;DHT22;9417;16.484;102.872;2024-02-15T03:46:22;28.20;57.50
18575;DHT22;9417;16.484;102.872;2024-02-15T03:47:24;28.20;57.20
18575;DHT22;9417;16.484;102.872;2024-02-15T03:48:26;28.30;56.50
18575;DHT22;9417;16.484;102.872;2024-02-15T03:49:28;28.30;56.50
18575;DHT22;9417;16.484;102.872;2024-02-15T03:50:31;28.30;56.50
18575;DHT22;9417;16.484;102.872;2024-02-15T03:51:34;28.40;56.20
18575;DHT22;9417;16.484;102.872;2024-02-15T03:52:39;28.40;56.00
18575;DHT22;9417;16.484;102.872;2024-02-15T03:53:42;28.50;56.20
18575;DHT22;9417;16.484;102.872;2024-02-15T03:54:43;28.50;56.00
18575;DHT22;9417;16.484;102.872;2024-02-15T03:55:45;28.50;55.30
18575;DHT22;9417;16.484;102.872;2024-02-15T03:56:50;28.60;55.10
18575;DHT22;9417;16.484;102.872;2024-02-15T03:57:55;28.60;55.30
18575;DHT22;9417;16.484;102.872;2024-02-15T03:58:59;28.60;55.30
18575;DHT22;9417;16.484;102.872;2024-02-15T04:00:00;28.70;55.20
18575;DHT22;9417;16.484;102.872;2024-02-15T04:01:02;28.70;55.30
18575;DHT22;9417;16.484;102.872;2024-02-15T04:02:07;28.70;55.10
18575;DHT22;9417;16.484;102.872;2024-02-15T04:03:15;28.80;55.10
18575;DHT22;9417;16.484;102.872;2024-02-15T04:04:17;28.80;55.20
18575;DHT22;9417;16.484;102.872;2024-02-15T04:05:18;28.80;55.00
18575;DHT22;9417;16.484;102.872;2024-02-15T04:06:24;28.90;54.60
18575;DHT22;9417;16.484;102.872;2024-02-15T04:07:26;28.90;54.70
18575;DHT22;9417;16.484;102.872;2024-02-15T04:08:27;29.00;54.70
18575;DHT22;9417;16.484;102.872;2024-02-15T04:09:29;29.00;54.40
18575;DHT22;9417;16.484;102.872;2024-02-15T04:10:31;29.00;54.20
18575;DHT22;9417;16.484;102.872;2024-02-15T04:11:32;29.10;54.30
18575;DHT22;9417;16.484;102.872;2024-02-15T04:12:34;29.10;54.10
18575;DHT22;9417;16.484;102.872;2024-02-15T04:13:36;29.20;53.50
18575;DHT22;9417;16.484;102.872;2024-02-15T04:14:38;29.20;53.30
18575;DHT22;9417;16.484;102.872;2024-02-15T04:15:40;29.30;53.10
18575;DHT22;9417;16.484;102.872;2024-02-15T04:16:42;29.30;53.30
18575;DHT22;9417;16.484;102.872;2024-02-15T04:17:44;29.30;53.10
18575;DHT22;9417;16.484;102.872;2024-02-15T04:18:46;29.40;52.30
18575;DHT22;9417;16.484;102.872;2024-02-15T04:19:49;29.40;52.10
18575;DHT22;9417;16.484;102.872;2024-02-15T04:20:55;29.40;51.70
18575;DHT22;9417;16.484;102.872;2024-02-15T04:21:56;29.50;51.50
18575;DHT22;9417;16.484;102.872;2024-02-15T04:22:58;29.50;51.30
18575;DHT22;9417;16.484;102.872;2024-02-15T04:24:01;29.60;50.90
18575;DHT22;9417;16.484;102.872;2024-02-15T04:25:04;29.60;50.80
18575;DHT22;9417;16.484;102.872;2024-02-15T04:26:07;29.60;51.30
18575;DHT22;9417;16.484;102.872;2024-02-15T04:27:09;29.70;51.40
18575;DHT22;9417;16.484;102.872;2024-02-15T04:28:14;29.70;51.60
18575;DHT22;9417;16.484;102.872;2024-02-15T04:29:16;29.70;51.60
18575;DHT22;9417;16.484;102.872;2024-02-15T04:30:21;29.70;51.50
18575;DHT22;9417;16.484;102.872;2024-02-15T04:31:25;29.80;51.10
18575;DHT22;9417;16.484;102.872;2024-02-15T04:32:29;29.80;50.60
18575;DHT22;9417;16.484;102.872;2024-02-15T04:33:34;29.80;49.90
18575;DHT22;9417;16.484;102.872;2024-02-15T04:34:39;29.80;50.10
18575;DHT22;9417;16.484;102.872;2024-02-15T04:35:41;29.90;50.00
18575;DHT22;9417;16.484;102.872;2024-02-15T04:36:47;29.90;49.40
18575;DHT22;9417;16.484;102.872;2024-02-15T04:37:54;29.90;49.50
18575;DHT22;9417;16.484;102.872;2024-02-15T04:38:56;29.90;49.40
18575;DHT22;9417;16.484;102.872;2024-02-15T04:40:01;29.90;49.50
18575;DHT22;9417;16.484;102.872;2024-02-15T04:41:09;29.90;50.10
18575;DHT22;9417;16.484;102.872;2024-02-15T04:42:10;29.90;50.10
18575;DHT22;9417;16.484;102.872;2024-02-15T04:43:13;29.90;50.30
18575;DHT22;9417;16.484;102.872;2024-02-15T04:44:17;30.00;50.70
18575;DHT22;9417;16.484;102.872;2024-02-15T04:45:21;30.10;50.70
18575;DHT22;9417;16.484;102.872;2024-02-15T04:46:23;30.10;50.70
18575;DHT22;9417;16.484;102.872;2024-02-15T04:47:25;30.10;51.40
18575;DHT22;9417;16.484;102.872;2024-02-15T04:48:27;30.30;50.80
18575;DHT22;9417;16.484;102.872;2024-02-15T04:49:31;30.20;49.80
18575;DHT22;9417;16.484;102.872;2024-02-15T04:50:32;30.30;50.70
18575;DHT22;9417;16.484;102.872;2024-02-15T04:51:35;30.30;51.30
18575;DHT22;9417;16.484;102.872;2024-02-15T04:52:37;30.30;51.30
18575;DHT22;9417;16.484;102.872;2024-02-15T04:53:39;30.30;50.80
18575;DHT22;9417;16.484;102.872;2024-02-15T04:54:42;30.40;50.40
18575;DHT22;9417;16.484;102.872;2024-02-15T04:55:44;30.40;49.90
18575;DHT22;9417;16.484;102.872;2024-02-15T04:56:45;30.40;50.00
18575;DHT22;9417;16.484;102.872;2024-02-15T04:57:47;30.50;49.70
18575;DHT22;9417;16.484;102.872;2024-02-15T04:58:50;30.50;49.20
18575;DHT22;9417;16.484;102.872;2024-02-15T04:59:52;30.60;48.80
18575;DHT22;9417;16.484;102.872;2024-02-15T05:00:53;30.60;48.30
18575;DHT22;9417;16.484;102.872;2024-02-15T05:01:59;30.60;47.80
18575;DHT22;9417;16.484;102.872;2024-02-15T05:03:02;30.60;48.00
18575;DHT22;9417;16.484;102.872;2024-02-15T05:04:04;30.60;48.10
18575;DHT22;9417;16.484;102.872;2024-02-15T05:05:07;30.70;48.00
18575;DHT22;9417;16.484;102.872;2024-02-15T05:06:09;30.70;48.10
18575;DHT22;9417;16.484;102.872;2024-02-15T05:07:13;30.70;48.40
18575;DHT22;9417;16.484;102.872;2024-02-15T05:08:18;30.70;48.60
18575;DHT22;9417;16.484;102.872;2024-02-15T05:09:19;30.70;48.90
18575;DHT22;9417;16.484;102.872;2024-02-15T05:10:21;30.80;48.50
18575;DHT22;9417;16.484;102.872;2024-02-15T05:11:23;30.80;49.00
18575;DHT22;9417;16.484;102.872;2024-02-15T05:12:25;30.80;48.60
18575;DHT22;9417;16.484;102.872;2024-02-15T05:13:26;30.80;48.50
18575;DHT22;9417;16.484;102.872;2024-02-15T05:14:28;30.90;48.80
18575;DHT22;9417;16.484;102.872;2024-02-15T05:15:30;30.90;48.60
18575;DHT22;9417;16.484;102.872;2024-02-15T05:16:36;30.90;49.20
18575;DHT22;9417;16.484;102.872;2024-02-15T05:17:44;30.90;49.60
18575;DHT22;9417;16.484;102.872;2024-02-15T05:18:46;31.00;50.00
18575;DHT22;9417;16.484;102.872;2024-02-15T05:19:48;31.00;50.20
18575;DHT22;9417;16.484;102.872;2024-02-15T05:20:50;31.00;50.10
18575;DHT22;9417;16.484;102.872;2024-02-15T05:21:51;31.00;49.90
18575;DHT22;9417;16.484;102.872;2024-02-15T05:22:54;31.00;48.90
18575;DHT22;9417;16.484;102.872;2024-02-15T05:23:55;31.00;49.70
18575;DHT22;9417;16.484;102.872;2024-02-15T05:24:58;31.00;48.50
18575;DHT22;9417;16.484;102.872;2024-02-15T05:26:00;31.10;48.40
18575;DHT22;9417;16.484;102.872;2024-02-15T05:27:01;31.10;48.40
18575;DHT22;9417;16.484;102.872;2024-02-15T05:28:03;31.10;46.80
18575;DHT22;9417;16.484;102.872;2024-02-15T05:29:07;31.00;46.30
18575;DHT22;9417;16.484;102.872;2024-02-15T05:30:09;31.00;45.60
18575;DHT22;9417;16.484;102.872;2024-02-15T05:31:18;31.00;46.50
18575;DHT22;9417;16.484;102.872;2024-02-15T05:32:21;31.00;47.40
18575;DHT22;9417;16.484;102.872;2024-02-15T05:33:23;31.00;46.60
18575;DHT22;9417;16.484;102.872;2024-02-15T05:34:24;31.00;46.90
18575;DHT22;9417;16.484;102.872;2024-02-15T05:35:26;31.10;46.80
18575;DHT22;9417;16.484;102.872;2024-02-15T05:36:29;31.20;46.00
18575;DHT22;9417;16.484;102.872;2024-02-15T05:37:31;31.20;46.50
18575;DHT22;9417;16.484;102.872;2024-02-15T05:38:35;31.20;46.80
18575;DHT22;9417;16.484;102.872;2024-02-15T05:39:37;31.30;46.10
18575;DHT22;9417;16.484;102.872;2024-02-15T05:40:40;31.30;44.90
18575;DHT22;9417;16.484;102.872;2024-02-15T05:41:43;31.30;44.20
18575;DHT22;9417;16.484;102.872;2024-02-15T05:42:45;31.40;44.90
18575;DHT22;9417;16.484;102.872;2024-02-15T05:43:47;31.40;44.10
18575;DHT22;9417;16.484;102.872;2024-02-15T05:44:54;31.30;44.60
18575;DHT22;9417;16.484;102.872;2024-02-15T05:45:56;31.30;44.30
18575;DHT22;9417;16.484;102.872;2024-02-15T05:47:00;31.30;42.80
18575;DHT22;9417;16.484;102.872;2024-02-15T05:48:03;31.30;43.30
18575;DHT22;9417;16.484;102.872;2024-02-15T05:49:08;31.40;42.50
18575;DHT22;9417;16.484;102.872;2024-02-15T05:50:16;31.40;42.70
18575;DHT22;9417;16.484;102.872;2024-02-15T05:51:22;31.40;43.30
18575;DHT22;9417;16.484;102.872;2024-02-15T05:52:24;31.50;42.50
18575;DHT22;9417;16.484;102.872;2024-02-15T05:53:26;31.60;43.50
18575;DHT22;9417;16.484;102.872;2024-02-15T05:54:27;31.60;42.60
18575;DHT22;9417;16.484;102.872;2024-02-15T05:55:29;31.60;42.80
18575;DHT22;9417;16.484;102.872;2024-02-15T05:56:34;31.60;43.80
18575;DHT22;9417;16.484;102.872;2024-02-15T05:57:36;31.70;43.30
18575;DHT22;9417;16.484;102.872;2024-02-15T05:58:38;31.80;43.10
18575;DHT22;9417;16.484;102.872;2024-02-15T05:59:40;31.80;43.60
18575;DHT22;9417;16.484;102.872;2024-02-15T06:00:43;31.90;43.60
18575;DHT22;9417;16.484;102.872;2024-02-15T06:01:51;31.90;43.80
18575;DHT22;9417;16.484;102.872;2024-02-15T06:02:53;32.00;44.10
18575;DHT22;9417;16.484;102.872;2024-02-15T06:03:56;32.00;44.20
18575;DHT22;9417;16.484;102.872;2024-02-15T06:04:58;31.90;37.90
18575;DHT22;9417;16.484;102.872;2024-02-15T06:06:05;31.90;38.70
18575;DHT22;9417;16.484;102.872;2024-02-15T06:07:09;31.80;40.30
18575;DHT22;9417;16.484;102.872;2024-02-15T06:08:11;31.90;41.80
18575;DHT22;9417;16.484;102.872;2024-02-15T06:09:13;31.90;40.40
18575;DHT22;9417;16.484;102.872;2024-02-15T06:10:15;31.90;40.00
18575;DHT22;9417;16.484;102.872;2024-02-15T06:11:19;31.90;39.30
18575;DHT22;9417;16.484;102.872;2024-02-15T06:12:21;32.00;39.20
18575;DHT22;9417;16.484;102.872;2024-02-15T06:13:25;32.10;39.50
18575;DHT22;9417;16.484;102.872;2024-02-15T06:14:27;32.20;41.30
18575;DHT22;9417;16.484;102.872;2024-02-15T06:15:28;32.20;40.80
18575;DHT22;9417;16.484;102.872;2024-02-15T06:16:30;32.20;39.90
18575;DHT22;9417;16.484;102.872;2024-02-15T06:17:32;32.20;38.90
18575;DHT22;9417;16.484;102.872;2024-02-15T06:18:33;32.20;38.20
18575;DHT22;9417;16.484;102.872;2024-02-15T06:19:35;32.30;38.10
18575;DHT22;9417;16.484;102.872;2024-02-15T06:20:36;32.30;38.80
18575;DHT22;9417;16.484;102.872;2024-02-15T06:21:40;32.40;38.90
18575;DHT22;9417;16.484;102.872;2024-02-15T06:22:41;32.50;38.80
18575;DHT22;9417;16.484;102.872;2024-02-15T06:23:43;32.50;38.60
18575;DHT22;9417;16.484;102.872;2024-02-15T06:24:45;32.60;38.00
18575;DHT22;9417;16.484;102.872;2024-02-15T06:25:47;32.60;38.40
18575;DHT22;9417;16.484;102.872;2024-02-15T06:26:48;32.70;38.30
18575;DHT22;9417;16.484;102.872;2024-02-15T06:27:52;32.70;37.50
18575;DHT22;9417;16.484;102.872;2024-02-15T06:29:00;32.70;38.00
18575;DHT22;9417;16.484;102.872;2024-02-15T06:30:20;32.80;37.10